sensor_id;sensor_type;location;lat;lon;timestamp;pressure;altitude;pressure_sealevel;temperature;humidity
8069;BME280;4077;43.702;24.896;2023-01-08T00:01:28;100040.25;;;-0.59;100.00
8069;BME280;4077;43.702;24.896;2023-01-08T00:03:53;100038.09;;;-0.66;100.00
8069;BME280;4077;43.702;24.896;2023-01-08T00:06:19;100027.00;;;-0.68;100.00
8069;BME280;4077;43.702;24.896;2023-01-08T00:08:47;100046.00;;;-0.61;100.00
8069;BME280;4077;43.702;24.896;2023-01-08T00:11:13;100044.22;;;-0.62;100.00
8069;BME280;4077;43.702;24.896;2023-01-08T00:13:39;100038.50;;;-0.60;100.00
8069;BME280;4077;43.702;24.896;2023-01-08T00:16:06;100045.50;;;-0.56;100.00
8069;BME280;4077;43.702;24.896;2023-01-08T00:18:32;100049.59;;;-0.58;100.00
8069;BME280;4077;43.702;24.896;2023-01-08T00:20:59;100044.75;;;-0.54;100.00
8069;BME280;4077;43.702;24.896;2023-01-08T00:23:24;100050.56;;;-0.56;100.00
8069;BME280;4077;43.702;24.896;2023-01-08T00:25:50;100045.63;;;-0.54;100.00
8069;BME280;4077;43.702;24.896;2023-01-08T00:28:15;100056.03;;;-0.49;100.00
8069;BME280;4077;43.702;24.896;2023-01-08T00:30:41;100060.72;;;-0.56;100.00
8069;BME280;4077;43.702;24.896;2023-01-08T00:33:07;100053.31;;;-0.66;100.00
8069;BME280;4077;43.702;24.896;2023-01-08T00:35:32;100044.53;;;-0.71;100.00
8069;BME280;4077;43.702;24.896;2023-01-08T00:37:57;100043.25;;;-0.77;100.00
8069;BME280;4077;43.702;24.896;2023-01-08T00:40:23;100046.78;;;-0.75;100.00
8069;BME280;4077;43.702;24.896;2023-01-08T00:42:48;100041.09;;;-0.85;100.00
8069;BME280;4077;43.702;24.896;2023-01-08T00:45:14;100047.44;;;-0.78;100.00
8069;BME280;4077;43.702;24.896;2023-01-08T00:47:39;100052.34;;;-0.68;100.00
8069;BME280;4077;43.702;24.896;2023-01-08T00:50:05;100051.84;;;-0.62;100.00
8069;BME280;4077;43.702;24.896;2023-01-08T00:52:30;100048.63;;;-0.73;100.00
8069;BME280;4077;43.702;24.896;2023-01-08T00:54:56;100054.25;;;-0.77;100.00
8069;BME280;4077;43.702;24.896;2023-01-08T00:57:21;100041.19;;;-0.83;100.00
8069;BME280;4077;43.702;24.896;2023-01-08T00:59:47;100059.53;;;-0.74;100.00
8069;BME280;4077;43.702;24.896;2023-01-08T01:02:12;100056.38;;;-0.83;100.00
8069;BME280;4077;43.702;24.896;2023-01-08T01:04:38;100053.47;;;-0.76;100.00
8069;BME280;4077;43.702;24.896;2023-01-08T01:07:04;100057.59;;;-0.65;100.00
8069;BME280;4077;43.702;24.896;2023-01-08T01:09:29;100061.41;;;-0.58;100.00
8069;BME280;4077;43.702;24.896;2023-01-08T01:11:55;100050.28;;;-0.73;100.00
8069;BME280;4077;43.702;24.896;2023-01-08T01:14:21;100048.22;;;-0.79;100.00
8069;BME280;4077;43.702;24.896;2023-01-08T01:16:46;100051.72;;;-0.77;100.00
8069;BME280;4077;43.702;24.896;2023-01-08T01:19:13;100049.59;;;-0.71;100.00
8069;BME280;4077;43.702;24.896;2023-01-08T01:21:39;100048.31;;;-0.77;100.00
8069;BME280;4077;43.702;24.896;2023-01-08T01:24:05;100046.84;;;-0.87;100.00
8069;BME280;4077;43.702;24.896;2023-01-08T01:26:32;100043.72;;;-0.83;100.00
8069;BME280;4077;43.702;24.896;2023-01-08T01:28:58;100041.97;;;-0.84;100.00
8069;BME280;4077;43.702;24.896;2023-01-08T01:31:25;100040.94;;;-0.74;100.00
8069;BME280;4077;43.702;24.896;2023-01-08T01:33:51;100046.06;;;-0.86;100.00
8069;BME280;4077;43.702;24.896;2023-01-08T01:36:18;100043.13;;;-0.92;100.00
8069;BME280;4077;43.702;24.896;2023-01-08T01:38:46;100032.81;;;-0.95;100.00
8069;BME280;4077;43.702;24.896;2023-01-08T01:43:54;100034.75;;;-0.91;100.00
8069;BME280;4077;43.702;24.896;2023-01-08T01:46:38;100033.56;;;-0.83;100.00
8069;BME280;4077;43.702;24.896;2023-01-08T01:49:10;100029.50;;;-0.81;100.00
8069;BME280;4077;43.702;24.896;2023-01-08T01:51:38;100031.84;;;-0.71;100.00
8069;BME280;4077;43.702;24.896;2023-01-08T01:54:08;100033.44;;;-0.60;100.00
8069;BME280;4077;43.702;24.896;2023-01-08T01:56:35;100034.78;;;-0.65;100.00
8069;BME280;4077;43.702;24.896;2023-01-08T01:59:01;100041.81;;;-0.61;100.00
8069;BME280;4077;43.702;24.896;2023-01-08T02:01:29;100032.34;;;-0.63;100.00
8069;BME280;4077;43.702;24.896;2023-01-08T02:03:55;100043.16;;;-0.66;100.00
8069;BME280;4077;43.702;24.896;2023-01-08T02:09:22;100028.34;;;-0.73;100.00
8069;BME280;4077;43.702;24.896;2023-01-08T02:17:37;100035.22;;;-0.97;100.00
8069;BME280;4077;43.702;24.896;2023-01-08T02:20:31;100028.31;;;-0.86;100.00
8069;BME280;4077;43.702;24.896;2023-01-08T02:26:12;100022.94;;;-0.91;100.00
8069;BME280;4077;43.702;24.896;2023-01-08T02:28:48;100020.53;;;-1.02;100.00
8069;BME280;4077;43.702;24.896;2023-01-08T02:31:16;100020.59;;;-1.14;100.00
8069;BME280;4077;43.702;24.896;2023-01-08T02:33:43;100027.66;;;-1.22;100.00
8069;BME280;4077;43.702;24.896;2023-01-08T02:38:47;100029.50;;;-0.94;100.00
8069;BME280;4077;43.702;24.896;2023-01-08T02:41:19;100023.06;;;-0.89;100.00
8069;BME280;4077;43.702;24.896;2023-01-08T02:43:51;100022.16;;;-0.90;100.00
8069;BME280;4077;43.702;24.896;2023-01-08T02:46:22;100030.00;;;-0.87;100.00
8069;BME280;4077;43.702;24.896;2023-01-08T02:49:01;100014.56;;;-0.90;100.00
8069;BME280;4077;43.702;24.896;2023-01-08T02:51:30;100024.81;;;-1.01;100.00
8069;BME280;4077;43.702;24.896;2023-01-08T02:54:02;100022.44;;;-0.98;100.00
8069;BME280;4077;43.702;24.896;2023-01-08T02:56:32;100017.38;;;-0.98;100.00
8069;BME280;4077;43.702;24.896;2023-01-08T02:58:59;100015.63;;;-0.99;100.00
8069;BME280;4077;43.702;24.896;2023-01-08T03:01:27;100015.44;;;-1.02;100.00
8069;BME280;4077;43.702;24.896;2023-01-08T03:03:59;100018.72;;;-1.03;100.00
8069;BME280;4077;43.702;24.896;2023-01-08T03:06:28;100018.59;;;-1.18;100.00
8069;BME280;4077;43.702;24.896;2023-01-08T03:08:54;100013.13;;;-1.24;100.00
8069;BME280;4077;43.702;24.896;2023-01-08T03:11:21;100012.88;;;-1.16;100.00
8069;BME280;4077;43.702;24.896;2023-01-08T03:14:06;100021.56;;;-0.99;100.00
8069;BME280;4077;43.702;24.896;2023-01-08T03:19:32;100020.00;;;-0.97;100.00
8069;BME280;4077;43.702;24.896;2023-01-08T03:22:02;100019.91;;;-0.98;100.00
8069;BME280;4077;43.702;24.896;2023-01-08T03:24:33;100024.81;;;-1.01;100.00
8069;BME280;4077;43.702;24.896;2023-01-08T03:27:03;100024.13;;;-0.99;100.00
8069;BME280;4077;43.702;24.896;2023-01-08T03:29:30;100034.16;;;-1.00;100.00
8069;BME280;4077;43.702;24.896;2023-01-08T03:32:02;100035.91;;;-0.99;100.00
8069;BME280;4077;43.702;24.896;2023-01-08T03:34:31;100024.56;;;-1.18;100.00
8069;BME280;4077;43.702;24.896;2023-01-08T03:36:59;100031.59;;;-1.14;100.00
8069;BME280;4077;43.702;24.896;2023-01-08T03:39:31;100034.03;;;-1.15;100.00
8069;BME280;4077;43.702;24.896;2023-01-08T03:42:04;100042.41;;;-1.16;100.00
8069;BME280;4077;43.702;24.896;2023-01-08T03:44:31;100037.16;;;-1.31;100.00
8069;BME280;4077;43.702;24.896;2023-01-08T03:46:57;100034.06;;;-1.27;100.00
8069;BME280;4077;43.702;24.896;2023-01-08T03:49:25;100037.72;;;-1.23;100.00
8069;BME280;4077;43.702;24.896;2023-01-08T03:51:52;100033.66;;;-1.33;100.00
8069;BME280;4077;43.702;24.896;2023-01-08T03:54:21;100034.75;;;-1.29;100.00
8069;BME280;4077;43.702;24.896;2023-01-08T03:56:48;100036.00;;;-1.36;100.00
8069;BME280;4077;43.702;24.896;2023-01-08T03:59:14;100029.75;;;-1.41;100.00
8069;BME280;4077;43.702;24.896;2023-01-08T04:01:40;100035.00;;;-1.38;100.00
8069;BME280;4077;43.702;24.896;2023-01-08T04:04:06;100031.09;;;-1.46;100.00
8069;BME280;4077;43.702;24.896;2023-01-08T04:06:31;100027.16;;;-1.54;100.00
8069;BME280;4077;43.702;24.896;2023-01-08T04:08:57;100031.97;;;-1.46;100.00
8069;BME280;4077;43.702;24.896;2023-01-08T04:11:22;100031.31;;;-1.43;100.00
8069;BME280;4077;43.702;24.896;2023-01-08T04:13:48;100024.47;;;-1.44;100.00
8069;BME280;4077;43.702;24.896;2023-01-08T04:16:13;100029.53;;;-1.44;100.00
8069;BME280;4077;43.702;24.896;2023-01-08T04:18:38;100030.16;;;-1.35;100.00
8069;BME280;4077;43.702;24.896;2023-01-08T04:21:04;100027.03;;;-1.31;100.00
8069;BME280;4077;43.702;24.896;2023-01-08T04:23:29;100030.75;;;-1.26;100.00
8069;BME280;4077;43.702;24.896;2023-01-08T04:25:55;100032.75;;;-1.22;100.00
8069;BME280;4077;43.702;24.896;2023-01-08T04:28:20;100027.97;;;-1.17;100.00
8069;BME280;4077;43.702;24.896;2023-01-08T04:30:46;100022.69;;;-1.20;100.00
8069;BME280;4077;43.702;24.896;2023-01-08T04:33:11;100030.56;;;-1.29;100.00
8069;BME280;4077;43.702;24.896;2023-01-08T04:35:36;100029.88;;;-1.26;100.00
8069;BME280;4077;43.702;24.896;2023-01-08T04:38:02;100023.22;;;-1.38;100.00
8069;BME280;4077;43.702;24.896;2023-01-08T04:40:28;100025.28;;;-1.32;100.00
8069;BME280;4077;43.702;24.896;2023-01-08T04:42:53;100029.69;;;-1.29;100.00
8069;BME280;4077;43.702;24.896;2023-01-08T04:45:19;100039.16;;;-1.27;100.00
8069;BME280;4077;43.702;24.896;2023-01-08T04:47:44;100043.06;;;-1.19;100.00
8069;BME280;4077;43.702;24.896;2023-01-08T04:50:10;100046.75;;;-1.27;100.00
8069;BME280;4077;43.702;24.896;2023-01-08T04:52:36;100037.34;;;-1.41;100.00
8069;BME280;4077;43.702;24.896;2023-01-08T04:55:01;100040.25;;;-1.48;100.00
8069;BME280;4077;43.702;24.896;2023-01-08T04:57:27;100034.66;;;-1.56;100.00
8069;BME280;4077;43.702;24.896;2023-01-08T04:59:52;100036.09;;;-1.59;100.00
8069;BME280;4077;43.702;24.896;2023-01-08T05:02:18;100043.44;;;-1.51;100.00
8069;BME280;4077;43.702;24.896;2023-01-08T05:04:43;100046.50;;;-1.43;100.00
8069;BME280;4077;43.702;24.896;2023-01-08T05:07:08;100042.97;;;-1.45;100.00
8069;BME280;4077;43.702;24.896;2023-01-08T05:09:34;100043.56;;;-1.49;100.00
8069;BME280;4077;43.702;24.896;2023-01-08T05:11:59;100045.41;;;-1.47;100.00
8069;BME280;4077;43.702;24.896;2023-01-08T05:14:25;100053.88;;;-1.46;100.00
8069;BME280;4077;43.702;24.896;2023-01-08T05:16:50;100047.84;;;-1.48;100.00
8069;BME280;4077;43.702;24.896;2023-01-08T05:19:15;100037.28;;;-1.54;100.00
8069;BME280;4077;43.702;24.896;2023-01-08T05:21:41;100052.03;;;-1.49;100.00
8069;BME280;4077;43.702;24.896;2023-01-08T05:24:06;100043.03;;;-1.57;100.00
8069;BME280;4077;43.702;24.896;2023-01-08T05:26:33;100047.88;;;-1.60;100.00
8069;BME280;4077;43.702;24.896;2023-01-08T05:28:59;100044.47;;;-1.60;100.00
8069;BME280;4077;43.702;24.896;2023-01-08T05:31:24;100043.91;;;-1.56;100.00
8069;BME280;4077;43.702;24.896;2023-01-08T05:33:50;100034.56;;;-1.57;100.00
8069;BME280;4077;43.702;24.896;2023-01-08T05:36:16;100033.78;;;-1.56;100.00
8069;BME280;4077;43.702;24.896;2023-01-08T05:38:41;100040.59;;;-1.55;100.00
8069;BME280;4077;43.702;24.896;2023-01-08T05:41:07;100038.63;;;-1.59;100.00
8069;BME280;4077;43.702;24.896;2023-01-08T05:43:33;100034.56;;;-1.57;100.00
8069;BME280;4077;43.702;24.896;2023-01-08T05:46:00;100042.72;;;-1.61;100.00
8069;BME280;4077;43.702;24.896;2023-01-08T05:48:27;100045.56;;;-1.57;100.00
8069;BME280;4077;43.702;24.896;2023-01-08T05:50:53;100047.00;;;-1.60;100.00
8069;BME280;4077;43.702;24.896;2023-01-08T05:53:18;100043.44;;;-1.51;100.00
8069;BME280;4077;43.702;24.896;2023-01-08T05:55:44;100048.81;;;-1.46;100.00
8069;BME280;4077;43.702;24.896;2023-01-08T05:58:09;100047.78;;;-1.36;100.00
8069;BME280;4077;43.702;24.896;2023-01-08T06:00:36;100055.03;;;-1.29;100.00
8069;BME280;4077;43.702;24.896;2023-01-08T06:03:02;100053.28;;;-1.30;100.00
8069;BME280;4077;43.702;24.896;2023-01-08T06:05:29;100056.44;;;-1.33;100.00
8069;BME280;4077;43.702;24.896;2023-01-08T06:07:55;100059.91;;;-1.44;100.00
8069;BME280;4077;43.702;24.896;2023-01-08T06:10:20;100064.00;;;-1.46;100.00
8069;BME280;4077;43.702;24.896;2023-01-08T06:12:45;100070.97;;;-1.55;100.00
8069;BME280;4077;43.702;24.896;2023-01-08T06:15:11;100063.72;;;-1.62;100.00
8069;BME280;4077;43.702;24.896;2023-01-08T06:17:37;100067.81;;;-1.40;100.00
8069;BME280;4077;43.702;24.896;2023-01-08T06:20:03;100071.03;;;-1.42;100.00
8069;BME280;4077;43.702;24.896;2023-01-08T06:22:28;100068.28;;;-1.45;100.00
8069;BME280;4077;43.702;24.896;2023-01-08T06:24:53;100071.41;;;-1.49;100.00
8069;BME280;4077;43.702;24.896;2023-01-08T06:27:19;100068.00;;;-1.50;100.00
8069;BME280;4077;43.702;24.896;2023-01-08T06:29:44;100076.66;;;-1.46;100.00
8069;BME280;4077;43.702;24.896;2023-01-08T06:32:10;100079.06;;;-1.36;100.00
8069;BME280;4077;43.702;24.896;2023-01-08T06:34:35;100075.78;;;-1.47;100.00
8069;BME280;4077;43.702;24.896;2023-01-08T06:37:00;100073.34;;;-1.45;100.00
8069;BME280;4077;43.702;24.896;2023-01-08T06:39:26;100087.97;;;-1.41;100.00
8069;BME280;4077;43.702;24.896;2023-01-08T06:41:51;100084.59;;;-1.17;100.00
8069;BME280;4077;43.702;24.896;2023-01-08T06:44:17;100088.28;;;-1.12;100.00
8069;BME280;4077;43.702;24.896;2023-01-08T06:46:42;100092.00;;;-1.06;100.00
8069;BME280;4077;43.702;24.896;2023-01-08T06:49:09;100096.91;;;-0.96;100.00
8069;BME280;4077;43.702;24.896;2023-01-08T06:51:35;100097.53;;;-0.87;100.00
8069;BME280;4077;43.702;24.896;2023-01-08T06:54:00;100093.34;;;-0.87;100.00
8069;BME280;4077;43.702;24.896;2023-01-08T06:56:26;100105.34;;;-0.71;100.00
8069;BME280;4077;43.702;24.896;2023-01-08T06:58:51;100107.50;;;-0.64;100.00
8069;BME280;4077;43.702;24.896;2023-01-08T07:01:17;100104.19;;;-0.63;100.00
8069;BME280;4077;43.702;24.896;2023-01-08T07:03:43;100099.94;;;-0.50;100.00
8069;BME280;4077;43.702;24.896;2023-01-08T07:06:14;100102.69;;;-0.34;100.00
8069;BME280;4077;43.702;24.896;2023-01-08T07:08:40;100109.22;;;-0.38;100.00
8069;BME280;4077;43.702;24.896;2023-01-08T07:11:05;100116.53;;;-0.16;100.00
8069;BME280;4077;43.702;24.896;2023-01-08T07:13:30;100117.63;;;0.01;100.00
8069;BME280;4077;43.702;24.896;2023-01-08T07:15:56;100124.13;;;0.11;100.00
8069;BME280;4077;43.702;24.896;2023-01-08T07:18:21;100111.34;;;0.22;100.00
8069;BME280;4077;43.702;24.896;2023-01-08T07:20:47;100108.09;;;0.25;100.00
8069;BME280;4077;43.702;24.896;2023-01-08T07:23:13;100113.19;;;0.25;100.00
8069;BME280;4077;43.702;24.896;2023-01-08T07:25:39;100111.13;;;0.33;100.00
8069;BME280;4077;43.702;24.896;2023-01-08T07:28:08;100116.94;;;0.45;100.00
8069;BME280;4077;43.702;24.896;2023-01-08T07:30:34;100120.16;;;0.56;100.00
8069;BME280;4077;43.702;24.896;2023-01-08T07:33:00;100120.66;;;0.78;100.00
8069;BME280;4077;43.702;24.896;2023-01-08T07:35:26;100118.88;;;0.90;100.00
8069;BME280;4077;43.702;24.896;2023-01-08T07:37:52;100120.66;;;1.06;100.00
8069;BME280;4077;43.702;24.896;2023-01-08T07:40:17;100122.91;;;1.01;100.00
8069;BME280;4077;43.702;24.896;2023-01-08T07:42:43;100130.78;;;0.91;100.00
8069;BME280;4077;43.702;24.896;2023-01-08T07:45:09;100119.03;;;0.93;100.00
8069;BME280;4077;43.702;24.896;2023-01-08T07:47:34;100128.84;;;0.87;100.00
8069;BME280;4077;43.702;24.896;2023-01-08T07:49:59;100132.69;;;0.95;100.00
8069;BME280;4077;43.702;24.896;2023-01-08T07:52:25;100128.56;;;1.11;100.00
8069;BME280;4077;43.702;24.896;2023-01-08T07:54:50;100127.06;;;1.29;100.00
8069;BME280;4077;43.702;24.896;2023-01-08T07:57:16;100122.59;;;1.10;100.00
8069;BME280;4077;43.702;24.896;2023-01-08T07:59:41;100132.06;;;1.13;100.00
8069;BME280;4077;43.702;24.896;2023-01-08T08:02:11;100134.16;;;1.20;100.00
8069;BME280;4077;43.702;24.896;2023-01-08T08:04:37;100120.19;;;0.98;100.00
8069;BME280;4077;43.702;24.896;2023-01-08T08:07:03;100125.09;;;0.95;100.00
8069;BME280;4077;43.702;24.896;2023-01-08T08:09:28;100121.25;;;1.02;100.00
8069;BME280;4077;43.702;24.896;2023-01-08T08:11:54;100118.25;;;0.94;100.00
8069;BME280;4077;43.702;24.896;2023-01-08T08:14:19;100115.84;;;1.11;100.00
8069;BME280;4077;43.702;24.896;2023-01-08T08:16:45;100113.41;;;1.27;100.00
8069;BME280;4077;43.702;24.896;2023-01-08T08:19:10;100110.19;;;1.44;100.00
8069;BME280;4077;43.702;24.896;2023-01-08T08:21:37;100129.28;;;1.52;100.00
8069;BME280;4077;43.702;24.896;2023-01-08T08:24:03;100132.94;;;1.57;100.00
8069;BME280;4077;43.702;24.896;2023-01-08T08:26:29;100135.63;;;1.59;100.00
8069;BME280;4077;43.702;24.896;2023-01-08T08:28:54;100134.19;;;1.64;100.00
8069;BME280;4077;43.702;24.896;2023-01-08T08:31:19;100137.88;;;1.69;100.00
8069;BME280;4077;43.702;24.896;2023-01-08T08:33:45;100134.88;;;1.76;100.00
8069;BME280;4077;43.702;24.896;2023-01-08T08:36:10;100140.78;;;1.75;100.00
8069;BME280;4077;43.702;24.896;2023-01-08T08:38:37;100135.94;;;1.80;100.00
8069;BME280;4077;43.702;24.896;2023-01-08T08:41:02;100139.59;;;1.85;100.00
8069;BME280;4077;43.702;24.896;2023-01-08T08:43:28;100140.69;;;1.88;100.00
8069;BME280;4077;43.702;24.896;2023-01-08T08:45:56;100137.16;;;2.01;100.00
8069;BME280;4077;43.702;24.896;2023-01-08T08:48:22;100141.91;;;1.95;100.00
8069;BME280;4077;43.702;24.896;2023-01-08T08:50:47;100130.13;;;1.97;100.00
8069;BME280;4077;43.702;24.896;2023-01-08T08:53:13;100139.06;;;2.05;100.00
8069;BME280;4077;43.702;24.896;2023-01-08T08:55:39;100136.97;;;1.98;100.00
8069;BME280;4077;43.702;24.896;2023-01-08T08:58:11;100134.31;;;2.11;100.00
8069;BME280;4077;43.702;24.896;2023-01-08T09:00:40;100144.16;;;2.05;100.00
8069;BME280;4077;43.702;24.896;2023-01-08T09:03:10;100140.09;;;2.24;100.00
8069;BME280;4077;43.702;24.896;2023-01-08T09:05:36;100146.13;;;2.26;100.00
8069;BME280;4077;43.702;24.896;2023-01-08T09:08:02;100138.47;;;2.26;100.00
8069;BME280;4077;43.702;24.896;2023-01-08T09:10:27;100139.53;;;2.29;100.00
8069;BME280;4077;43.702;24.896;2023-01-08T09:12:53;100131.50;;;2.22;100.00
8069;BME280;4077;43.702;24.896;2023-01-08T09:15:19;100138.41;;;2.24;100.00
8069;BME280;4077;43.702;24.896;2023-01-08T09:17:51;100139.69;;;2.32;100.00
8069;BME280;4077;43.702;24.896;2023-01-08T09:20:17;100138.47;;;2.26;100.00
8069;BME280;4077;43.702;24.896;2023-01-08T09:22:42;100130.84;;;2.26;100.00
8069;BME280;4077;43.702;24.896;2023-01-08T09:25:07;100131.66;;;2.25;100.00
8069;BME280;4077;43.702;24.896;2023-01-08T09:27:33;100126.56;;;2.25;100.00
8069;BME280;4077;43.702;24.896;2023-01-08T09:29:58;100125.13;;;2.30;100.00
8069;BME280;4077;43.702;24.896;2023-01-08T09:32:24;100121.22;;;2.20;100.00
8069;BME280;4077;43.702;24.896;2023-01-08T09:34:49;100116.03;;;2.18;100.00
8069;BME280;4077;43.702;24.896;2023-01-08T09:37:15;100119.72;;;2.24;100.00
8069;BME280;4077;43.702;24.896;2023-01-08T09:39:40;100098.66;;;2.11;100.00
8069;BME280;4077;43.702;24.896;2023-01-08T09:42:06;100111.13;;;2.22;100.00
8069;BME280;4077;43.702;24.896;2023-01-08T09:44:37;100116.09;;;2.35;100.00
8069;BME280;4077;43.702;24.896;2023-01-08T09:47:03;100102.81;;;2.26;100.00
8069;BME280;4077;43.702;24.896;2023-01-08T09:49:39;100110.81;;;2.32;100.00
8069;BME280;4077;43.702;24.896;2023-01-08T09:52:07;100104.09;;;2.17;100.00
8069;BME280;4077;43.702;24.896;2023-01-08T09:54:34;100099.19;;;2.21;100.00
8069;BME280;4077;43.702;24.896;2023-01-08T09:56:59;100096.88;;;2.25;100.00
8069;BME280;4077;43.702;24.896;2023-01-08T09:59:25;100096.72;;;2.22;100.00
8069;BME280;4077;43.702;24.896;2023-01-08T10:01:51;100089.81;;;2.36;100.00
8069;BME280;4077;43.702;24.896;2023-01-08T10:04:22;100087.59;;;2.42;100.00
8069;BME280;4077;43.702;24.896;2023-01-08T10:06:55;100086.31;;;2.34;100.00
8069;BME280;4077;43.702;24.896;2023-01-08T10:09:29;100083.31;;;2.41;100.00
8069;BME280;4077;43.702;24.896;2023-01-08T10:11:59;100086.47;;;2.37;100.00
8069;BME280;4077;43.702;24.896;2023-01-08T10:14:36;100081.84;;;2.46;100.00
8069;BME280;4077;43.702;24.896;2023-01-08T10:19:27;100087.75;;;2.45;100.00
8069;BME280;4077;43.702;24.896;2023-01-08T10:21:53;100073.88;;;2.40;100.00
8069;BME280;4077;43.702;24.896;2023-01-08T10:24:36;100076.13;;;2.50;100.00
8069;BME280;4077;43.702;24.896;2023-01-08T10:27:23;100078.06;;;2.54;100.00
8069;BME280;4077;43.702;24.896;2023-01-08T10:29:50;100069.25;;;2.33;100.00
8069;BME280;4077;43.702;24.896;2023-01-08T10:32:28;100076.19;;;2.52;100.00
8069;BME280;4077;43.702;24.896;2023-01-08T10:34:58;100076.75;;;2.46;100.00
8069;BME280;4077;43.702;24.896;2023-01-08T10:37:37;100074.72;;;2.55;100.00
8069;BME280;4077;43.702;24.896;2023-01-08T10:40:26;100071.66;;;2.46;100.00
8069;BME280;4077;43.702;24.896;2023-01-08T10:42:55;100062.03;;;2.40;100.00
8069;BME280;4077;43.702;24.896;2023-01-08T10:45:24;100058.91;;;2.46;100.00
8069;BME280;4077;43.702;24.896;2023-01-08T10:47:53;100054.88;;;2.50;100.00
8069;BME280;4077;43.702;24.896;2023-01-08T10:50:30;100061.13;;;2.40;100.00
8069;BME280;4077;43.702;24.896;2023-01-08T10:53:03;100049.84;;;2.51;100.00
8069;BME280;4077;43.702;24.896;2023-01-08T10:55:32;100059.09;;;2.65;100.00
8069;BME280;4077;43.702;24.896;2023-01-08T11:00:34;100054.88;;;2.66;100.00
8069;BME280;4077;43.702;24.896;2023-01-08T11:03:03;100047.94;;;2.47;100.00
8069;BME280;4077;43.702;24.896;2023-01-08T11:05:35;100037.84;;;2.49;100.00
8069;BME280;4077;43.702;24.896;2023-01-08T11:08:04;100041.09;;;2.46;100.00
8069;BME280;4077;43.702;24.896;2023-01-08T11:10:31;100031.22;;;2.52;100.00
8069;BME280;4077;43.702;24.896;2023-01-08T11:13:00;100036.22;;;2.67;100.00
8069;BME280;4077;43.702;24.896;2023-01-08T11:15:39;100030.44;;;2.69;100.00
8069;BME280;4077;43.702;24.896;2023-01-08T11:20:38;100034.56;;;2.51;100.00
8069;BME280;4077;43.702;24.896;2023-01-08T11:25:40;100037.75;;;2.63;100.00
8069;BME280;4077;43.702;24.896;2023-01-08T11:28:11;100038.28;;;2.74;100.00
8069;BME280;4077;43.702;24.896;2023-01-08T11:30:43;100030.75;;;2.76;100.00
8069;BME280;4077;43.702;24.896;2023-01-08T11:33:14;100032.09;;;2.69;100.00
8069;BME280;4077;43.702;24.896;2023-01-08T11:38:46;100034.53;;;2.67;100.00
8069;BME280;4077;43.702;24.896;2023-01-08T11:41:33;100030.25;;;2.83;100.00
8069;BME280;4077;43.702;24.896;2023-01-08T11:49:42;100019.06;;;3.31;100.00
8069;BME280;4077;43.702;24.896;2023-01-08T11:55:05;100017.81;;;3.41;100.00
8069;BME280;4077;43.702;24.896;2023-01-08T12:11:40;100007.38;;;3.18;100.00
8069;BME280;4077;43.702;24.896;2023-01-08T12:22:43;99989.38;;;3.33;100.00
8069;BME280;4077;43.702;24.896;2023-01-08T12:25:32;99987.19;;;3.41;100.00
8069;BME280;4077;43.702;24.896;2023-01-08T12:28:16;99987.25;;;3.42;100.00
8069;BME280;4077;43.702;24.896;2023-01-08T12:30:46;99973.72;;;3.25;100.00
8069;BME280;4077;43.702;24.896;2023-01-08T12:33:33;99981.81;;;3.35;100.00
8069;BME280;4077;43.702;24.896;2023-01-08T12:36:07;99978.94;;;3.28;100.00
8069;BME280;4077;43.702;24.896;2023-01-08T12:38:42;99974.59;;;3.26;100.00
8069;BME280;4077;43.702;24.896;2023-01-08T12:41:10;99976.91;;;3.21;100.00
8069;BME280;4077;43.702;24.896;2023-01-08T12:44:05;99973.50;;;3.21;100.00
8069;BME280;4077;43.702;24.896;2023-01-08T12:46:35;99968.44;;;3.22;100.00
8069;BME280;4077;43.702;24.896;2023-01-08T12:49:04;99969.25;;;3.21;100.00
8069;BME280;4077;43.702;24.896;2023-01-08T12:56:53;99972.69;;;3.22;100.00
8069;BME280;4077;43.702;24.896;2023-01-08T13:05:10;99964.78;;;2.99;100.00
8069;BME280;4077;43.702;24.896;2023-01-08T13:07:42;99957.56;;;2.91;100.00
8069;BME280;4077;43.702;24.896;2023-01-08T13:10:20;99959.06;;;2.69;100.00
8069;BME280;4077;43.702;24.896;2023-01-08T13:12:51;99955.25;;;2.61;100.00
8069;BME280;4077;43.702;24.896;2023-01-08T13:15:22;99951.63;;;2.74;100.00
8069;BME280;4077;43.702;24.896;2023-01-08T13:17:51;99952.59;;;2.76;100.00
8069;BME280;4077;43.702;24.896;2023-01-08T13:20:26;99956.47;;;2.86;100.00
8069;BME280;4077;43.702;24.896;2023-01-08T13:22:57;99952.09;;;2.83;100.00
8069;BME280;4077;43.702;24.896;2023-01-08T13:27:48;99954.00;;;2.87;100.00
8069;BME280;4077;43.702;24.896;2023-01-08T13:30:39;99959.13;;;3.05;100.00
8069;BME280;4077;43.702;24.896;2023-01-08T13:38:37;99951.38;;;2.86;100.00
8069;BME280;4077;43.702;24.896;2023-01-08T13:41:02;99942.91;;;2.87;100.00
8069;BME280;4077;43.702;24.896;2023-01-08T13:43:37;99940.09;;;2.98;100.00
8069;BME280;4077;43.702;24.896;2023-01-08T13:51:01;99932.59;;;2.84;100.00
8069;BME280;4077;43.702;24.896;2023-01-08T13:53:27;99946.44;;;2.89;100.00
8069;BME280;4077;43.702;24.896;2023-01-08T13:56:02;99938.34;;;2.97;100.00
8069;BME280;4077;43.702;24.896;2023-01-08T13:58:35;99939.22;;;2.98;100.00
8069;BME280;4077;43.702;24.896;2023-01-08T14:01:03;99934.56;;;2.89;100.00
8069;BME280;4077;43.702;24.896;2023-01-08T14:03:36;99933.53;;;2.86;100.00
8069;BME280;4077;43.702;24.896;2023-01-08T14:06:18;99939.16;;;2.96;100.00
8069;BME280;4077;43.702;24.896;2023-01-08T14:08:55;99939.16;;;2.96;100.00
8069;BME280;4077;43.702;24.896;2023-01-08T14:11:29;99937.19;;;2.91;100.00
8069;BME280;4077;43.702;24.896;2023-01-08T14:13:56;99936.63;;;2.80;100.00
8069;BME280;4077;43.702;24.896;2023-01-08T14:16:22;99942.72;;;2.82;100.00
8069;BME280;4077;43.702;24.896;2023-01-08T14:18:48;99940.16;;;2.82;100.00
8069;BME280;4077;43.702;24.896;2023-01-08T14:21:19;99942.03;;;2.86;100.00
8069;BME280;4077;43.702;24.896;2023-01-08T14:23:46;99944.16;;;2.77;100.00
8069;BME280;4077;43.702;24.896;2023-01-08T14:28:50;99949.19;;;2.76;100.00
8069;BME280;4077;43.702;24.896;2023-01-08T14:31:26;99943.03;;;2.72;100.00